Time;durP1;ratioP1;P1;durP2;ratioP2;P2;SDS_P1;SDS_P2;PMS_P1;PMS_P2;Temp;Humidity;BMP_temperature;BMP_pressure;BME280_temperature;BME280_humidity;BME280_pressure;Samples;Min_cycle;Max_cycle;Signal;HPM_P1;HPM_P2
2022/06/02 00:00:05;;;;;;;3.47;3.17;;;;;;;10.21;80.56;100994.13;4995794;28;20218;-82
2022/06/02 00:02:38;;;;;;;3.30;3.00;;;;;;;10.19;80.22;100990.69;4988812;28;20200;-81
2022/06/02 00:05:16;;;;;;;3.40;3.00;;;;;;;10.16;80.05;100999.66;4989590;28;21179;-82
2022/06/02 00:07:58;;;;;;;3.37;3.10;;;;;;;10.14;80.64;100993.56;4989775;28;20690;-82
2022/06/02 00:10:36;;;;;;;4.03;3.23;;;;;;;10.11;80.34;100993.75;4995875;28;20209;-82
2022/06/02 00:13:15;;;;;;;3.17;2.97;;;;;;;10.09;80.76;100992.97;4993707;28;20291;-82
2022/06/02 00:15:52;;;;;;;3.70;3.27;;;;;;;10.07;80.88;101002.81;4986308;28;20211;-82
2022/06/02 00:18:27;;;;;;;3.83;3.43;;;;;;;10.04;80.89;101000.34;4991866;28;20258;-85
2022/06/02 00:20:57;;;;;;;3.40;3.10;;;;;;;10.03;81.28;101009.28;4989786;28;20210;-84
2022/06/02 00:23:39;;;;;;;3.50;3.20;;;;;;;10.00;81.53;101017.44;4993092;28;20196;-84
2022/06/02 00:26:20;;;;;;;4.17;3.77;;;;;;;9.97;81.66;101025.59;4989889;28;20231;-84
2022/06/02 00:28:59;;;;;;;3.83;3.53;;;;;;;9.94;81.60;101021.28;4983288;28;20835;-83
2022/06/02 00:31:32;;;;;;;4.17;3.87;;;;;;;9.92;81.51;101033.81;4988023;28;20218;-84
2022/06/02 00:34:07;;;;;;;4.27;3.97;;;;;;;9.90;81.63;101035.69;4994068;28;20234;-83
2022/06/02 00:36:40;;;;;;;4.53;4.13;;;;;;;9.89;81.79;101041.09;4986739;28;20226;-85
2022/06/02 00:39:08;;;;;;;4.93;4.53;;;;;;;9.87;82.04;101035.00;4986804;28;20234;-83
2022/06/02 00:41:42;;;;;;;4.73;4.27;;;;;;;9.82;81.67;101040.59;4989297;28;20208;-84
2022/06/02 00:44:22;;;;;;;4.80;4.40;;;;;;;9.79;81.78;101043.41;4990901;28;20234;-84
2022/06/02 00:46:59;;;;;;;4.87;4.40;;;;;;;9.78;82.39;101047.00;4990691;28;20210;-84
2022/06/02 00:49:34;;;;;;;6.13;4.73;;;;;;;9.75;82.33;101044.50;4982423;28;20278;-83
2022/06/02 00:52:21;;;;;;;5.53;4.97;;;;;;;9.74;82.92;101051.63;4989935;28;20240;-83
2022/06/02 00:58:05;;;;;;;5.23;4.83;;;;;;;9.70;82.34;101051.84;4988696;28;20272;-83
2022/06/02 01:00:39;;;;;;;6.03;5.53;;;;;;;9.68;82.74;101056.41;4991502;28;20203;-83
2022/06/02 01:03:10;;;;;;;6.50;5.90;;;;;;;9.67;82.93;101063.50;4993531;28;20569;-84
2022/06/02 01:05:56;;;;;;;6.40;5.80;;;;;;;9.64;82.97;101066.38;4995943;28;20203;-84
2022/06/02 01:08:40;;;;;;;6.63;6.03;;;;;;;9.63;83.31;101074.41;4982786;28;20223;-83
2022/06/02 01:11:17;;;;;;;7.20;6.60;;;;;;;9.61;83.23;101071.84;4987341;28;20730;-83
2022/06/02 01:13:55;;;;;;;7.83;7.13;;;;;;;9.59;83.70;101073.72;4983379;28;20220;-83
2022/06/02 01:16:30;;;;;;;7.27;6.57;;;;;;;9.57;83.68;101075.59;4983619;28;20807;-83
2022/06/02 01:19:10;;;;;;;8.30;7.50;;;;;;;9.56;83.68;101073.88;4985276;28;20721;-84
2022/06/02 01:22:19;;;;;;;8.13;7.33;;;;;;;9.55;84.01;101076.59;4985705;28;20195;-83
2022/06/02 01:25:28;;;;;;;8.30;7.60;;;;;;;9.53;84.27;101067.84;4954042;28;20230;-83
2022/06/02 01:28:22;;;;;;;8.80;8.00;;;;;;;9.50;84.40;101068.00;4963565;28;20210;-83
2022/06/02 01:30:54;;;;;;;8.90;8.00;;;;;;;9.49;84.40;101075.16;4986207;28;20612;-83
2022/06/02 01:33:34;;;;;;;9.23;8.33;;;;;;;9.48;83.74;101069.91;4993440;28;20203;-83
2022/06/02 01:36:12;;;;;;;9.90;8.90;;;;;;;9.46;84.22;101082.41;4991415;28;20235;-83
2022/06/02 01:38:47;;;;;;;9.97;8.97;;;;;;;9.44;84.48;101079.84;4990299;28;20223;-83
2022/06/02 01:41:22;;;;;;;9.77;8.87;;;;;;;9.43;84.23;101082.56;4992506;28;20210;-83
2022/06/02 01:44:00;;;;;;;10.30;9.30;;;;;;;9.41;84.14;101093.28;4990403;28;20226;-83
2022/06/02 01:46:38;;;;;;;11.47;9.47;;;;;;;9.40;84.55;101091.56;4979637;28;20199;-85
2022/06/02 01:49:15;;;;;;;10.57;9.57;;;;;;;9.39;84.93;101095.16;4982397;28;20231;-83
2022/06/02 01:51:52;;;;;;;10.87;9.77;;;;;;;9.39;85.05;101103.13;4990010;28;20218;-84
2022/06/02 01:54:33;;;;;;;11.00;9.90;;;;;;;9.37;84.94;101091.72;4977211;28;20231;-83
2022/06/02 01:57:18;;;;;;;12.67;10.53;;;;;;;9.34;85.59;101102.50;4982406;28;20216;-84
2022/06/02 01:59:58;;;;;;;12.87;11.47;;;;;;;9.33;85.78;101092.81;4993021;28;20222;-83
2022/06/02 02:02:39;;;;;;;11.77;10.60;;;;;;;9.31;85.89;101097.38;4982846;28;20291;-84
2022/06/02 02:05:21;;;;;;;14.03;11.37;;;;;;;9.30;85.58;101099.16;4985455;28;20227;-83
2022/06/02 02:08:13;;;;;;;12.00;10.67;;;;;;;9.30;85.45;101100.97;4989340;28;20211;-83
2022/06/02 02:10:51;;;;;;;12.53;11.07;;;;;;;9.29;86.02;101105.41;4983055;28;20207;-83
2022/06/02 02:13:29;;;;;;;12.87;11.57;;;;;;;9.28;86.49;101102.81;4989425;28;20212;-83
2022/06/02 02:16:02;;;;;;;12.43;11.23;;;;;;;9.28;85.91;101113.47;4990342;28;20200;-83
2022/06/02 02:18:43;;;;;;;15.20;13.60;;;;;;;9.26;86.64;101104.69;4990947;28;20231;-83
2022/06/02 02:21:19;;;;;;;14.10;12.70;;;;;;;9.24;85.71;101107.44;4989718;28;20203;-83
2022/06/02 02:24:04;;;;;;;13.73;12.33;;;;;;;9.25;85.68;101113.59;4989388;28;20226;-84
2022/06/02 02:26:36;;;;;;;14.03;12.67;;;;;;;9.23;86.31;101113.69;4984169;28;20661;-83
2022/06/02 02:29:14;;;;;;;13.30;11.90;;;;;;;9.21;86.31;101115.56;4989152;28;20283;-83
2022/06/02 02:31:49;;;;;;;14.03;12.60;;;;;;;9.22;86.57;101111.09;4988900;28;20195;-83
2022/06/02 02:34:28;;;;;;;13.60;12.20;;;;;;;9.22;87.02;101111.09;4989903;28;20230;-83
2022/06/02 02:37:00;;;;;;;14.50;13.00;;;;;;;9.20;87.23;101113.84;4985661;28;20196;-83
2022/06/02 02:39:41;;;;;;;14.00;12.60;;;;;;;9.20;86.84;101116.50;4989664;28;20250;-84
2022/06/02 02:42:15;;;;;;;14.17;12.67;;;;;;;9.20;87.09;101115.63;4991869;28;20211;-83
2022/06/02 02:44:47;;;;;;;14.80;13.13;;;;;;;9.19;87.67;101116.56;4988567;28;20230;-83
2022/06/02 02:47:20;;;;;;;14.60;12.87;;;;;;;9.18;87.54;101118.34;4990886;28;20209;-84
2022/06/02 02:49:55;;;;;;;15.33;13.00;;;;;;;9.16;87.50;101112.25;4991202;28;20196;-83
2022/06/02 02:52:28;;;;;;;14.60;13.10;;;;;;;9.16;87.34;101124.69;4993509;28;20202;-84
2022/06/02 02:54:58;;;;;;;14.93;13.33;;;;;;;9.16;87.21;101122.03;4990070;28;20230;-83
2022/06/02 02:57:38;;;;;;;15.20;13.57;;;;;;;9.15;87.12;101122.97;4992316;28;20239;-83
2022/06/02 03:00:13;;;;;;;16.23;13.37;;;;;;;9.14;87.84;101129.22;4994789;28;20705;-84
2022/06/02 03:02:50;;;;;;;15.23;13.80;;;;;;;9.15;87.80;101120.31;4989307;28;20206;-83
2022/06/02 03:05:27;;;;;;;14.87;13.37;;;;;;;9.14;87.40;101132.72;4993196;28;20223;-83
2022/06/02 03:08:02;;;;;;;15.97;14.37;;;;;;;9.11;87.91;101119.63;4991803;28;20199;-84
2022/06/02 03:10:42;;;;;;;16.90;14.27;;;;;;;9.11;87.94;101130.25;4984080;28;20199;-82
2022/06/02 03:13:33;;;;;;;17.37;14.87;;;;;;;9.12;88.02;101136.44;4987487;28;20207;-83
2022/06/02 03:16:06;;;;;;;18.77;14.90;;;;;;;9.11;87.58;101129.38;4992080;28;20203;-83
2022/06/02 03:18:52;;;;;;;17.20;15.40;;;;;;;9.11;88.04;101135.56;4986438;28;20577;-83
2022/06/02 03:21:32;;;;;;;18.33;15.17;;;;;;;9.10;88.07;101131.19;4989770;28;21771;-84
2022/06/02 03:24:16;;;;;;;18.80;16.90;;;;;;;9.09;87.99;101137.44;4998747;28;20231;-83
2022/06/02 03:26:54;;;;;;;17.30;14.93;;;;;;;9.10;88.08;101140.97;4986703;28;20678;-83
2022/06/02 03:29:28;;;;;;;20.10;15.87;;;;;;;9.09;88.39;101136.56;4997496;28;20215;-83
2022/06/02 03:32:02;;;;;;;19.27;16.83;;;;;;;9.08;88.13;101142.81;4984087;28;20226;-83
2022/06/02 03:34:36;;;;;;;22.37;16.67;;;;;;;9.07;88.22;101147.28;4981194;28;20586;-82
2022/06/02 03:37:20;;;;;;;21.23;16.53;;;;;;;9.08;88.05;101150.78;4982945;28;20207;-83
2022/06/02 03:40:01;;;;;;;20.73;16.80;;;;;;;9.08;89.22;101151.66;4988856;28;20298;-84
2022/06/02 03:42:37;;;;;;;17.90;15.57;;;;;;;9.09;88.82;101155.19;4983181;28;20216;-82
2022/06/02 03:45:11;;;;;;;18.67;16.00;;;;;;;9.10;88.98;101154.25;4986225;28;20224;-82
2022/06/02 03:47:55;;;;;;;19.40;16.30;;;;;;;9.10;88.54;101151.59;4981600;28;20206;-82
2022/06/02 03:50:43;;;;;;;22.90;18.13;;;;;;;9.10;88.83;101156.91;4982697;28;20654;-83
2022/06/02 03:53:27;;;;;;;20.83;17.37;;;;;;;9.12;89.12;101157.69;4972178;28;20208;-83
2022/06/02 03:56:06;;;;;;;21.90;17.40;;;;;;;9.11;88.61;101162.13;4981374;28;20833;-83
2022/06/02 03:58:49;;;;;;;21.33;18.17;;;;;;;9.13;89.35;101162.06;4985020;28;20220;-83
2022/06/02 04:01:22;;;;;;;21.17;18.23;;;;;;;9.14;89.13;101163.75;4982210;28;20201;-83
2022/06/02 04:04:08;;;;;;;21.10;18.17;;;;;;;9.14;89.74;101169.94;4982703;28;20711;-83
2022/06/02 04:06:43;;;;;;;23.13;18.90;;;;;;;9.16;89.29;101169.88;4982092;28;20231;-83
2022/06/02 04:09:27;;;;;;;21.20;17.03;;;;;;;9.16;89.13;101181.34;4984292;28;20682;-84
2022/06/02 04:15:22;;;;;;;22.13;17.87;;;;;;;9.18;89.95;101194.56;4984141;28;20239;-84
2022/06/02 04:17:58;;;;;;;22.37;18.57;;;;;;;9.20;89.94;101204.19;4982377;28;20564;-85
2022/06/02 04:20:53;;;;;;;21.03;17.33;;;;;;;9.22;89.54;101206.78;4982316;28;20218;-83
2022/06/02 04:23:41;;;;;;;20.83;17.70;;;;;;;9.24;89.91;101212.88;4973468;28;20200;-83
2022/06/02 04:26:24;;;;;;;21.57;18.07;;;;;;;9.26;90.07;101211.88;4982429;28;20724;-83
2022/06/02 04:28:57;;;;;;;21.77;18.17;;;;;;;9.28;90.13;101217.97;4981219;28;20234;-83
2022/06/02 04:31:37;;;;;;;22.40;18.80;;;;;;;9.31;89.47;101209.00;4980372;28;20681;-83
2022/06/02 04:34:13;;;;;;;23.83;18.60;;;;;;;9.33;90.06;101223.06;4985398;28;20227;-82
2022/06/02 04:36:48;;;;;;;21.90;18.70;;;;;;;9.34;89.98;101225.63;4983467;28;20207;-83
2022/06/02 04:39:22;;;;;;;23.00;19.07;;;;;;;9.36;89.67;101225.56;4981201;28;20231;-82
2022/06/02 04:41:57;;;;;;;24.07;18.47;;;;;;;9.38;90.84;101224.56;4983664;28;20205;-84
2022/06/02 04:44:32;;;;;;;26.33;20.27;;;;;;;9.42;90.12;101225.28;4984195;28;20227;-83
2022/06/02 04:47:13;;;;;;;21.60;18.73;;;;;;;9.42;90.17;101227.94;4983357;28;20216;-83
2022/06/02 04:49:47;;;;;;;24.53;19.77;;;;;;;9.46;90.44;101232.16;4981394;28;20203;-83
2022/06/02 04:52:21;;;;;;;24.83;19.30;;;;;;;9.51;90.32;101245.22;4978693;28;20206;-83
2022/06/02 04:54:58;;;;;;;22.23;18.13;;;;;;;9.52;90.84;101247.78;4984009;28;20227;-83
2022/06/02 04:57:31;;;;;;;25.87;19.37;;;;;;;9.54;90.61;101237.94;4977714;28;20210;-83
2022/06/02 05:00:04;;;;;;;26.07;19.73;;;;;;;9.57;90.20;101244.91;4980694;28;20239;-83
2022/06/02 05:02:43;;;;;;;25.03;19.43;;;;;;;9.59;90.18;101249.22;4984390;28;20223;-84
2022/06/02 05:05:16;;;;;;;24.73;20.23;;;;;;;9.63;90.84;101256.13;4982985;28;20325;-82
2022/06/02 05:08:06;;;;;;;26.63;19.40;;;;;;;9.66;90.86;101252.44;4980534;28;20196;-83
2022/06/02 05:10:39;;;;;;;25.37;19.33;;;;;;;9.70;90.52;101252.19;4988470;28;20199;-83
2022/06/02 05:13:15;;;;;;;25.53;18.63;;;;;;;9.73;90.52;101254.72;4984900;28;20200;-83
2022/06/02 05:16:00;;;;;;;26.37;19.07;;;;;;;9.78;90.91;101254.50;4982533;28;20233;-83
2022/06/02 05:18:48;;;;;;;21.97;18.70;;;;;;;9.84;90.72;101264.81;4980694;28;20203;-83
2022/06/02 05:21:46;;;;;;;23.57;18.87;;;;;;;9.89;91.16;101262.78;4981292;28;20203;-82
2022/06/02 05:24:41;;;;;;;24.00;19.87;;;;;;;9.97;91.08;101270.38;4983174;28;20235;-83
2022/06/02 05:27:41;;;;;;;26.07;19.93;;;;;;;10.04;91.19;101271.78;4969925;28;20212;-84
2022/06/02 05:30:34;;;;;;;27.70;19.97;;;;;;;10.11;91.37;101273.19;4983886;28;20204;-84
2022/06/02 05:33:30;;;;;;;23.20;18.20;;;;;;;10.20;90.90;101282.56;4983980;28;20210;-84
2022/06/02 05:36:26;;;;;;;23.33;19.43;;;;;;;10.29;91.31;101290.91;4971132;28;20209;-84
2022/06/02 05:39:14;;;;;;;23.67;18.30;;;;;;;10.37;90.82;101290.53;4984910;28;21164;-84
2022/06/02 05:41:55;;;;;;;22.77;18.30;;;;;;;10.46;90.77;101305.13;4988549;28;20694;-84
2022/06/02 05:44:31;;;;;;;20.50;17.13;;;;;;;10.57;90.51;101306.28;4983614;28;20309;-83
2022/06/02 05:47:19;;;;;;;23.43;19.63;;;;;;;10.66;90.35;101302.28;4986655;28;20203;-83
2022/06/02 05:49:55;;;;;;;23.80;18.33;;;;;;;10.74;90.30;101308.09;4987126;28;20200;-83
2022/06/02 05:52:31;;;;;;;19.67;17.47;;;;;;;10.82;89.57;101308.50;4986953;28;20224;-83
2022/06/02 05:55:17;;;;;;;19.33;16.80;;;;;;;10.91;89.60;101329.34;4990255;28;20232;-84
2022/06/02 05:57:50;;;;;;;18.73;16.73;;;;;;;11.00;89.06;101325.31;4988530;28;20690;-84
2022/06/02 06:00:25;;;;;;;18.37;16.47;;;;;;;11.11;88.91;101321.09;4993156;28;20224;-83
2022/06/02 06:03:28;;;;;;;19.87;16.40;;;;;;;11.29;88.89;101323.69;4995482;28;20208;-84
2022/06/02 06:06:03;;;;;;;17.87;15.97;;;;;;;11.45;88.47;101322.78;4993795;28;20204;-84
2022/06/02 06:08:49;;;;;;;17.00;14.77;;;;;;;11.61;88.04;101330.78;4992633;28;20208;-85
2022/06/02 06:11:31;;;;;;;18.07;16.03;;;;;;;11.74;87.35;101321.13;4990733;28;20278;-84
2022/06/02 06:14:14;;;;;;;17.00;15.00;;;;;;;11.83;86.67;101325.94;4994030;28;20225;-84
2022/06/02 06:16:47;;;;;;;17.07;15.27;;;;;;;11.93;86.07;101328.94;4989337;28;20235;-83
2022/06/02 06:19:39;;;;;;;17.07;15.27;;;;;;;12.05;85.65;101330.03;4992453;28;20213;-84
2022/06/02 06:22:23;;;;;;;16.90;15.10;;;;;;;12.18;84.76;101330.19;4980384;28;20209;-84
2022/06/02 06:25:16;;;;;;;15.77;14.23;;;;;;;12.30;84.03;101337.47;4992891;28;20220;-84
2022/06/02 06:27:52;;;;;;;15.80;13.77;;;;;;;12.37;83.23;101333.47;4993308;28;20217;-84
2022/06/02 06:30:27;;;;;;;18.57;15.00;;;;;;;12.48;82.37;101337.22;4990804;28;20196;-84
2022/06/02 06:33:14;;;;;;;15.23;13.63;;;;;;;12.57;81.84;101341.13;4993480;28;20199;-84
2022/06/02 06:35:56;;;;;;;14.13;12.83;;;;;;;12.65;81.41;101354.06;4983384;28;20200;-84
2022/06/02 06:38:37;;;;;;;14.40;13.00;;;;;;;12.70;80.71;101349.28;4986676;28;20222;-84
2022/06/02 06:41:20;;;;;;;13.63;12.23;;;;;;;12.73;80.35;101349.94;4990105;28;20235;-84
2022/06/02 06:44:04;;;;;;;15.53;13.70;;;;;;;12.76;79.66;101355.09;4981660;28;20227;-84
2022/06/02 06:46:37;;;;;;;14.10;12.60;;;;;;;12.78;79.39;101345.19;4986697;28;20663;-83
2022/06/02 06:49:12;;;;;;;14.43;13.07;;;;;;;12.78;78.93;101352.34;4993773;28;20830;-84
2022/06/02 06:51:53;;;;;;;14.33;12.93;;;;;;;12.80;78.58;101350.44;4988227;28;20219;-84
2022/06/02 06:54:29;;;;;;;14.90;13.40;;;;;;;12.79;78.30;101354.91;4985592;28;20223;-84
2022/06/02 06:57:01;;;;;;;15.47;13.97;;;;;;;12.78;78.28;101361.22;4986341;28;20210;-84
2022/06/02 06:59:46;;;;;;;14.53;13.10;;;;;;;12.79;78.38;101362.09;4989726;28;20196;-83
2022/06/02 07:02:18;;;;;;;14.10;12.60;;;;;;;12.79;78.01;101362.09;4988109;28;20917;-84
2022/06/02 07:04:53;;;;;;;14.00;12.53;;;;;;;12.80;78.16;101362.00;4989391;28;20228;-84
2022/06/02 07:07:31;;;;;;;15.00;13.50;;;;;;;12.83;77.36;101359.13;4988234;28;20203;-85
2022/06/02 07:10:04;;;;;;;15.20;13.03;;;;;;;12.88;77.94;101371.38;4988928;28;20203;-84
2022/06/02 07:12:54;;;;;;;14.07;12.63;;;;;;;12.96;77.93;101374.41;4990633;28;20224;-84
2022/06/02 07:15:36;;;;;;;14.30;12.93;;;;;;;13.05;77.66;101369.38;4990998;28;20228;-83
2022/06/02 07:18:13;;;;;;;14.33;12.97;;;;;;;13.13;77.77;101372.41;4993578;28;20231;-85
2022/06/02 07:20:57;;;;;;;14.20;12.80;;;;;;;13.20;77.11;101371.09;4994214;28;20744;-83
2022/06/02 07:23:42;;;;;;;14.27;12.87;;;;;;;13.32;77.36;101368.59;4991790;28;20689;-84
2022/06/02 07:26:21;;;;;;;13.67;12.37;;;;;;;13.39;76.17;101367.28;4993431;28;20202;-84
2022/06/02 07:28:58;;;;;;;12.60;11.40;;;;;;;13.49;76.19;101365.72;4990304;28;20200;-86
2022/06/02 07:31:43;;;;;;;13.33;12.00;;;;;;;13.69;76.52;101359.94;4994511;28;20290;-84
2022/06/02 07:34:28;;;;;;;12.80;11.50;;;;;;;13.92;76.48;101368.28;4992465;28;20226;-84
2022/06/02 07:37:06;;;;;;;12.23;10.93;;;;;;;14.03;75.11;101366.63;4992795;28;20663;-84
2022/06/02 07:40:02;;;;;;;11.67;10.47;;;;;;;14.21;74.74;101361.84;4992976;28;20254;-84
2022/06/02 07:43:05;;;;;;;12.67;11.47;;;;;;;14.34;73.31;101360.03;4985394;28;20675;-84
2022/06/02 07:45:36;;;;;;;12.30;11.20;;;;;;;14.33;71.63;101363.69;4989257;28;20219;-83
2022/06/02 07:48:22;;;;;;;11.53;10.43;;;;;;;14.36;71.40;101365.31;4985313;28;20197;-84
2022/06/02 07:50:56;;;;;;;11.93;10.63;;;;;;;14.38;70.78;101361.56;4991284;28;20261;-85
2022/06/02 07:53:44;;;;;;;11.97;10.87;;;;;;;14.44;70.61;101365.69;4984301;28;20200;-84
2022/06/02 07:56:23;;;;;;;11.90;10.70;;;;;;;14.52;70.59;101364.19;4988664;28;20208;-84
2022/06/02 07:58:59;;;;;;;10.83;9.73;;;;;;;14.62;70.29;101369.78;4994866;28;20235;-83
2022/06/02 08:01:54;;;;;;;10.40;9.50;;;;;;;14.79;70.15;101360.59;4994936;28;20223;-86
2022/06/02 08:04:31;;;;;;;9.97;8.97;;;;;;;14.91;69.26;101363.25;4982502;28;20227;-84
2022/06/02 08:07:03;;;;;;;9.10;8.13;;;;;;;15.05;68.39;101361.44;4986265;28;20214;-83
2022/06/02 08:09:59;;;;;;;8.83;8.03;;;;;;;15.16;68.38;101361.53;4994382;28;20219;-83
2022/06/02 08:12:33;;;;;;;9.77;7.30;;;;;;;15.26;67.17;101360.75;4987506;28;20203;-85
2022/06/02 08:15:17;;;;;;;7.77;7.07;;;;;;;15.22;66.36;101367.34;4993988;28;20564;-84
2022/06/02 08:17:49;;;;;;;10.33;7.30;;;;;;;15.30;66.19;101377.50;4987770;28;20203;-84
2022/06/02 08:20:35;;;;;;;7.20;6.50;;;;;;;15.43;65.46;101377.47;4986582;28;20215;-83
2022/06/02 08:23:12;;;;;;;7.30;6.60;;;;;;;15.53;64.94;101373.16;4989822;28;20196;-84
2022/06/02 08:25:47;;;;;;;7.03;6.43;;;;;;;15.52;63.25;101384.88;4989226;28;20223;-83
2022/06/02 08:28:36;;;;;;;7.07;6.37;;;;;;;15.56;63.94;101389.09;4988326;28;20724;-83
2022/06/02 08:31:13;;;;;;;6.17;5.53;;;;;;;15.66;63.53;101382.06;4991805;28;20705;-84
2022/06/02 08:33:49;;;;;;;5.70;5.10;;;;;;;15.79;63.60;101388.25;4990425;28;20220;-83
2022/06/02 08:36:20;;;;;;;7.33;5.17;;;;;;;15.94;62.84;101387.13;4992972;28;20205;-83
2022/06/02 08:39:13;;;;;;;4.77;4.20;;;;;;;15.96;60.97;101387.88;4993028;28;20207;-84
2022/06/02 08:42:22;;;;;;;5.00;4.60;;;;;;;16.03;60.83;101387.41;4993303;28;20562;-83
2022/06/02 08:45:16;;;;;;;5.03;4.50;;;;;;;16.18;60.71;101388.97;4987657;28;20255;-83
2022/06/02 08:48:13;;;;;;;4.70;4.20;;;;;;;16.26;59.87;101397.31;4988112;28;20680;-83
2022/06/02 08:51:01;;;;;;;5.73;5.10;;;;;;;16.37;59.17;101396.50;4986977;28;20204;-85
2022/06/02 08:54:05;;;;;;;5.87;5.30;;;;;;;16.53;58.86;101383.59;4988898;28;20205;-85
2022/06/02 08:57:03;;;;;;;5.27;4.80;;;;;;;16.55;57.88;101387.88;4987388;28;20212;-85
2022/06/02 08:59:53;;;;;;;5.83;5.33;;;;;;;16.59;57.92;101396.56;4984223;28;20199;-83
2022/06/02 09:02:38;;;;;;;6.03;5.37;;;;;;;16.68;57.79;101401.25;4992999;28;20218;-86
2022/06/02 09:05:49;;;;;;;5.00;4.37;;;;;;;16.77;57.18;101400.56;4993286;28;20696;-84
2022/06/02 09:08:44;;;;;;;5.37;4.77;;;;;;;16.90;56.63;101401.31;4992997;28;20221;-83
2022/06/02 09:11:28;;;;;;;6.77;5.37;;;;;;;17.04;56.28;101394.84;4993939;28;20197;-84
2022/06/02 09:14:32;;;;;;;5.60;5.10;;;;;;;17.16;56.46;101399.28;4973942;28;20236;-83
2022/06/02 09:17:01;;;;;;;5.37;4.77;;;;;;;17.30;56.28;101409.81;4975808;28;20218;-84
2022/06/02 09:20:02;;;;;;;4.20;3.83;;;;;;;17.46;55.88;101409.44;4974270;28;20207;-83
2022/06/02 09:22:38;;;;;;;4.93;4.17;;;;;;;17.63;55.04;101405.41;4974911;28;20476;-83
2022/06/02 09:25:17;;;;;;;6.13;3.90;;;;;;;17.77;54.28;101407.84;4976454;28;20255;-84
2022/06/02 09:28:07;;;;;;;4.50;4.10;;;;;;;17.92;53.43;101411.97;4988150;28;20284;-86
2022/06/02 09:30:44;;;;;;;3.70;3.40;;;;;;;18.03;53.11;101408.41;4998770;28;20200;-83
2022/06/02 09:33:37;;;;;;;4.70;3.10;;;;;;;18.07;51.95;101414.44;4998472;28;20192;-83
2022/06/02 09:36:32;;;;;;;3.37;3.07;;;;;;;18.03;51.53;101420.06;4997455;28;20227;-83
2022/06/02 09:39:13;;;;;;;3.30;2.87;;;;;;;18.09;51.51;101413.31;4997355;28;20189;-86
2022/06/02 09:41:53;;;;;;;3.87;3.20;;;;;;;18.20;51.21;101421.34;4997470;28;20574;-83
2022/06/02 09:44:27;;;;;;;3.30;2.83;;;;;;;18.36;51.46;101415.53;4997215;28;20229;-83
2022/06/02 09:47:27;;;;;;;3.13;2.63;;;;;;;18.41;50.59;101410.63;4997716;28;20237;-83
2022/06/02 09:50:15;;;;;;;3.40;3.10;;;;;;;18.50;50.31;101412.53;4997455;28;20199;-83
2022/06/02 09:53:02;;;;;;;3.37;3.07;;;;;;;18.65;50.50;101421.19;4997366;28;20635;-83
2022/06/02 09:55:55;;;;;;;3.87;3.23;;;;;;;18.78;49.55;101421.03;4996993;28;20225;-83
2022/06/02 09:58:45;;;;;;;3.33;3.03;;;;;;;18.86;49.35;101419.38;4997132;28;20218;-84
2022/06/02 10:01:47;;;;;;;3.40;3.10;;;;;;;19.01;49.55;101427.97;4984272;28;20736;-83
2022/06/02 10:04:31;;;;;;;3.20;2.90;;;;;;;19.11;48.85;101428.91;4997114;28;20249;-83
2022/06/02 10:07:11;;;;;;;2.73;2.50;;;;;;;19.19;47.41;101423.69;4997966;28;20190;-84
2022/06/02 10:09:55;;;;;;;2.60;2.40;;;;;;;19.27;47.11;101426.56;4997641;28;20200;-83
2022/06/02 10:15:51;;;;;;;4.00;2.80;;;;;;;19.55;46.99;101427.72;4962601;29;20257;-83
2022/06/02 10:18:35;;;;;;;2.97;2.67;;;;;;;19.77;46.87;101418.56;4977790;28;20220;-83
2022/06/02 10:21:17;;;;;;;3.83;3.27;;;;;;;19.84;45.57;101422.44;4979688;28;20285;-83
2022/06/02 10:24:07;;;;;;;3.80;3.40;;;;;;;19.82;44.92;101415.44;4979998;28;20231;-84
2022/06/02 10:26:48;;;;;;;2.90;2.67;;;;;;;19.70;45.10;101425.53;4979828;28;20201;-83
2022/06/02 10:29:55;;;;;;;3.20;2.90;;;;;;;19.58;45.17;101415.78;4979569;28;20209;-83
2022/06/02 10:33:01;;;;;;;3.67;2.50;;;;;;;19.55;45.68;101421.47;4979684;28;20263;-85
2022/06/02 10:35:58;;;;;;;4.67;2.50;;;;;;;19.48;45.04;101425.69;4977116;28;20226;-83
2022/06/02 10:38:27;;;;;;;2.53;2.30;;;;;;;19.48;45.13;101426.53;4977889;28;20226;-84
2022/06/02 10:41:35;;;;;;;2.73;2.30;;;;;;;19.55;45.59;101422.31;4978107;28;20378;-84
2022/06/02 10:44:14;;;;;;;3.00;2.30;;;;;;;19.59;44.70;101428.31;4966949;28;20237;-83
2022/06/02 10:47:34;;;;;;;2.33;2.07;;;;;;;19.69;44.96;101423.81;4992869;28;20570;-85
2022/06/02 10:50:09;;;;;;;2.60;2.37;;;;;;;19.79;44.55;101424.69;4997310;28;20198;-83
2022/06/02 10:53:15;;;;;;;2.80;2.60;;;;;;;19.90;44.15;101421.00;4997077;28;20723;-83
2022/06/02 10:56:23;;;;;;;2.57;2.17;;;;;;;19.88;44.04;101423.88;4996913;28;20234;-84
2022/06/02 10:59:21;;;;;;;2.33;1.90;;;;;;;19.86;44.05;101420.44;4994897;28;20222;-83
2022/06/02 11:02:39;;;;;;;2.63;2.00;;;;;;;19.91;43.95;101426.28;4984315;28;20228;-83
2022/06/02 11:05:51;;;;;;;2.83;2.23;;;;;;;19.92;43.07;101419.00;4988329;28;20707;-84
2022/06/02 11:08:59;;;;;;;1.90;1.80;;;;;;;19.98;42.35;101422.03;4997215;28;20198;-83
2022/06/02 11:12:16;;;;;;;2.13;1.80;;;;;;;20.14;42.30;101415.22;4996543;28;20212;-83
2022/06/02 11:15:18;;;;;;;1.70;1.60;;;;;;;20.30;42.29;101410.13;4991988;28;20671;-83
2022/06/02 11:18:24;;;;;;;4.17;1.83;;;;;;;20.43;41.33;101413.41;4996337;28;20229;-84
2022/06/02 11:21:14;;;;;;;3.80;1.90;;;;;;;20.43;40.85;101416.13;4956143;28;20210;-82
2022/06/02 11:24:00;;;;;;;1.93;1.70;;;;;;;20.41;40.52;101416.28;4996449;28;20225;-83
2022/06/02 11:27:09;;;;;;;1.70;1.30;;;;;;;20.45;40.58;101414.13;4977336;28;20196;-83
2022/06/02 11:30:09;;;;;;;2.30;1.50;;;;;;;20.54;40.46;101416.00;4976461;28;20647;-85
2022/06/02 11:32:51;;;;;;;2.67;2.00;;;;;;;20.63;40.42;101404.28;4986149;28;20208;-83
2022/06/02 11:35:33;;;;;;;1.97;1.80;;;;;;;20.67;40.00;101410.28;4996543;28;20227;-84
2022/06/02 11:38:30;;;;;;;2.00;1.80;;;;;;;20.68;40.96;101412.84;4995622;28;20188;-83
2022/06/02 11:41:19;;;;;;;2.33;1.55;;;;;;;20.68;41.30;101403.88;4989132;28;20217;-84
2022/06/02 11:44:04;;;;;;;2.83;1.70;;;;;;;20.67;41.35;101403.00;4996626;28;20596;-83
2022/06/02 11:47:04;;;;;;;1.70;1.60;;;;;;;20.63;41.64;101409.72;4996225;28;20229;-84
2022/06/02 11:49:44;;;;;;;4.30;3.93;;;;;;;20.58;41.83;101406.59;4968266;28;20238;-84
2022/06/02 11:52:41;;;;;;;2.95;2.58;;;;;;;20.56;42.04;101403.19;4978889;28;20188;-84
2022/06/02 11:55:23;;;;;;;3.20;2.30;;;;;;;20.62;41.73;101401.72;4995599;28;20780;-84
2022/06/02 11:58:36;;;;;;;2.90;1.70;;;;;;;20.67;41.57;101410.28;4996448;28;20223;-83
2022/06/02 12:01:16;;;;;;;2.13;1.63;;;;;;;20.70;40.97;101393.75;4995581;28;20199;-83
2022/06/02 12:03:58;;;;;;;2.87;2.20;;;;;;;20.71;40.80;101401.75;4995647;28;20226;-85
2022/06/02 12:07:07;;;;;;;6.47;4.90;;;;;;;20.72;40.83;101402.59;4995351;28;20203;-83
2022/06/02 12:09:58;;;;;;;4.55;3.72;;;;;;;20.66;41.08;101412.13;4995393;28;20210;-83
2022/06/02 12:12:45;;;;;;;5.73;5.07;;;;;;;20.65;40.99;101406.88;4995315;28;20218;-87
2022/06/02 12:15:59;;;;;;;2.30;2.10;;;;;;;20.66;40.90;101398.59;4995776;28;20230;-85
2022/06/02 12:18:32;;;;;;;2.53;2.23;;;;;;;20.75;40.99;101407.72;4961675;28;20214;-83
2022/06/02 12:21:46;;;;;;;2.72;2.28;;;;;;;20.74;40.33;101411.44;4995669;28;20210;-85
2022/06/02 12:24:49;;;;;;;2.70;2.50;;;;;;;20.70;41.22;101402.72;4915692;29;20905;-83
2022/06/02 12:27:47;;;;;;;2.87;2.43;;;;;;;20.75;41.24;101407.72;4916413;29;20282;-83
2022/06/02 12:30:27;;;;;;;2.60;2.40;;;;;;;20.82;40.81;101406.13;4985625;28;20229;-83
2022/06/02 12:33:15;;;;;;;3.40;2.03;;;;;;;20.86;40.61;101404.00;4983763;28;20792;-84
2022/06/02 12:36:02;;;;;;;5.00;2.20;;;;;;;20.86;41.03;101421.09;4994983;28;20234;-83
2022/06/02 12:38:46;;;;;;;2.40;2.20;;;;;;;20.84;41.10;101405.97;4988980;28;20207;-83
2022/06/02 12:41:31;;;;;;;2.53;2.30;;;;;;;20.80;41.68;101410.81;4990117;28;20217;-83
2022/06/02 12:44:25;;;;;;;2.37;2.17;;;;;;;20.82;41.30;101407.97;4995038;28;20271;-83